Time;durP1;ratioP1;P1;durP2;ratioP2;P2;SDS_P1;SDS_P2;PMS_P1;PMS_P2;Temp;Humidity;BMP_temperature;BMP_pressure;BME280_temperature;BME280_humidity;BME280_pressure;Samples;Min_cycle;Max_cycle;Signal;HPM_P1;HPM_P2
2022/08/01 00:01:00;;;;;;;6.75;2.30;;;18.10;99.90;;;;;;4974875;28;20031;-74
2022/08/01 00:03:25;;;;;;;4.80;2.72;;;18.10;99.90;;;;;;4975300;28;20025;-73
2022/08/01 00:05:51;;;;;;;3.85;2.65;;;18.10;99.90;;;;;;4974928;28;20066;-72
2022/08/01 00:08:16;;;;;;;4.25;2.72;;;18.10;99.90;;;;;;4975224;28;20085;-72
2022/08/01 00:10:42;;;;;;;11.02;3.38;;;18.00;99.90;;;;;;4974675;28;20051;-72
2022/08/01 00:13:07;;;;;;;4.28;2.83;;;18.10;99.90;;;;;;4957610;28;20055;-73
2022/08/01 00:15:33;;;;;;;5.97;2.78;;;18.10;99.90;;;;;;4958481;28;20023;-73
2022/08/01 00:17:59;;;;;;;4.68;3.08;;;18.00;99.90;;;;;;4957079;28;20081;-73
2022/08/01 00:20:25;;;;;;;4.75;2.97;;;18.00;99.90;;;;;;4975159;28;20058;-72
2022/08/01 00:22:50;;;;;;;4.35;2.92;;;18.00;99.90;;;;;;4957377;28;20488;-74
2022/08/01 00:25:16;;;;;;;5.80;3.17;;;18.00;99.90;;;;;;4975461;28;20045;-74
2022/08/01 00:27:41;;;;;;;4.22;2.97;;;18.00;99.90;;;;;;4974921;28;20046;-71
2022/08/01 00:30:07;;;;;;;4.40;2.65;;;18.00;99.90;;;;;;4974333;28;20090;-73
2022/08/01 00:32:33;;;;;;;5.38;3.20;;;18.00;99.90;;;;;;4974485;28;20023;-73
2022/08/01 00:34:59;;;;;;;6.88;3.17;;;18.00;99.90;;;;;;4975040;28;20070;-73
2022/08/01 00:37:24;;;;;;;12.10;3.63;;;18.00;99.90;;;;;;4974379;28;20031;-73
2022/08/01 00:39:50;;;;;;;6.50;3.25;;;18.00;99.90;;;;;;4975418;28;21997;-74
2022/08/01 00:42:15;;;;;;;5.93;3.63;;;17.90;99.90;;;;;;4974698;28;20031;-74
2022/08/01 00:44:41;;;;;;;7.25;4.03;;;17.90;99.90;;;;;;4974377;28;20392;-70
2022/08/01 00:47:07;;;;;;;6.80;3.58;;;17.90;99.90;;;;;;4974280;28;20022;-74
2022/08/01 00:49:33;;;;;;;7.60;4.18;;;17.90;99.90;;;;;;4973637;28;20034;-72
2022/08/01 00:51:59;;;;;;;7.40;3.75;;;17.90;99.90;;;;;;4973848;28;20035;-73
2022/08/01 00:54:26;;;;;;;8.23;4.20;;;17.90;99.90;;;;;;4956825;28;20030;-73
2022/08/01 00:56:52;;;;;;;7.28;3.80;;;17.90;99.90;;;;;;4974475;28;20125;-73
2022/08/01 00:59:18;;;;;;;6.30;3.85;;;17.90;99.90;;;;;;4973965;28;20030;-73
2022/08/01 01:01:44;;;;;;;10.45;4.35;;;18.00;99.90;;;;;;4973911;28;20042;-71
2022/08/01 01:04:10;;;;;;;9.35;4.03;;;17.90;99.90;;;;;;4974532;28;20043;-72
2022/08/01 01:06:58;;;;;;;7.20;3.70;;;17.80;99.90;;;;;;4973577;28;20118;-73
2022/08/01 01:09:27;;;;;;;8.10;4.70;;;17.90;99.90;;;;;;4974396;28;20039;-71
2022/08/01 01:12:03;;;;;;;23.45;4.75;;;17.90;99.90;;;;;;4974281;28;20484;-72
2022/08/01 01:14:53;;;;;;;9.63;5.15;;;17.90;99.90;;;;;;4973933;28;20055;-74
2022/08/01 01:17:26;;;;;;;9.93;4.47;;;17.90;99.90;;;;;;4973935;28;20046;-71
2022/08/01 01:19:55;;;;;;;10.90;4.60;;;17.90;99.90;;;;;;4973992;28;20023;-71
2022/08/01 01:22:37;;;;;;;10.80;4.20;;;17.80;99.90;;;;;;4973375;28;20058;-70
2022/08/01 01:25:20;;;;;;;9.95;5.38;;;17.90;99.90;;;;;;4973891;28;20559;-72
2022/08/01 01:28:02;;;;;;;11.23;4.95;;;17.90;99.90;;;;;;4973441;28;20065;-72
2022/08/01 01:30:31;;;;;;;6.70;3.92;;;17.80;99.90;;;;;;4973622;28;20439;-71
2022/08/01 01:33:01;;;;;;;7.50;4.03;;;17.80;99.90;;;;;;4974810;28;20869;-73
2022/08/01 01:35:32;;;;;;;4.53;2.83;;;17.80;99.90;;;;;;4974327;28;20051;-71
2022/08/01 01:38:04;;;;;;;5.50;2.72;;;17.90;99.90;;;;;;4974598;28;20047;-71
2022/08/01 01:40:31;;;;;;;5.13;2.38;;;17.80;99.90;;;;;;4974643;28;20104;-73
2022/08/01 01:42:57;;;;;;;7.18;3.50;;;17.80;99.90;;;;;;4974276;28;20419;-71
2022/08/01 01:45:24;;;;;;;5.43;2.95;;;17.80;99.90;;;;;;4973912;28;20035;-70
2022/08/01 01:47:52;;;;;;;8.57;3.10;;;17.80;99.90;;;;;;4973625;28;20019;-71
2022/08/01 01:50:20;;;;;;;5.10;3.10;;;17.70;99.90;;;;;;4974209;28;20035;-72
2022/08/01 01:52:47;;;;;;;5.25;3.47;;;17.70;99.90;;;;;;4974107;28;20031;-72
2022/08/01 01:55:14;;;;;;;4.53;3.17;;;17.70;99.90;;;;;;4973878;28;20163;-71
2022/08/01 01:57:42;;;;;;;6.15;3.88;;;17.60;99.90;;;;;;4974047;28;20027;-70
2022/08/01 02:00:10;;;;;;;5.95;3.50;;;17.60;99.90;;;;;;4973381;28;20027;-74
2022/08/01 02:02:37;;;;;;;6.05;3.70;;;17.60;99.90;;;;;;4955694;28;20035;-72
2022/08/01 02:05:03;;;;;;;5.28;3.17;;;17.60;99.90;;;;;;4974246;28;20043;-72
2022/08/01 02:07:30;;;;;;;7.22;4.07;;;17.60;99.90;;;;;;4973420;28;20023;-73
2022/08/01 02:09:58;;;;;;;5.32;4.18;;;17.60;99.90;;;;;;4974020;28;20023;-71
2022/08/01 02:12:24;;;;;;;8.30;4.45;;;17.60;99.90;;;;;;4973663;28;20458;-71
2022/08/01 02:14:53;;;;;;;12.27;5.53;;;17.60;99.90;;;;;;4973498;28;20870;-71
2022/08/01 02:17:20;;;;;;;6.28;4.22;;;17.50;99.90;;;;;;4973852;28;20554;-73
2022/08/01 02:19:47;;;;;;;9.52;4.82;;;17.50;99.90;;;;;;4973678;28;20028;-72
2022/08/01 02:22:36;;;;;;;6.85;3.72;;;17.60;99.90;;;;;;4972864;28;20102;-72
2022/08/01 02:25:20;;;;;;;5.85;3.53;;;17.60;99.90;;;;;;4973695;28;20094;-71
2022/08/01 02:28:05;;;;;;;9.60;3.70;;;17.60;99.90;;;;;;4973795;28;20095;-70
2022/08/01 02:30:37;;;;;;;4.68;2.60;;;17.50;99.90;;;;;;4971850;28;20275;-73
2022/08/01 02:33:24;;;;;;;3.95;2.15;;;17.60;99.90;;;;;;4973126;28;20019;-73
2022/08/01 02:35:53;;;;;;;5.75;2.65;;;17.50;99.90;;;;;;4973205;28;20071;-72
2022/08/01 02:38:23;;;;;;;3.65;2.15;;;17.50;99.90;;;;;;4971960;28;20522;-72
2022/08/01 02:40:52;;;;;;;10.02;2.20;;;17.40;99.90;;;;;;4973702;28;20038;-73
2022/08/01 02:43:21;;;;;;;3.22;2.00;;;17.40;99.90;;;;;;4973743;28;20094;-73
2022/08/01 02:45:53;;;;;;;6.57;2.33;;;17.40;99.90;;;;;;4972315;28;20055;-73
2022/08/01 02:48:21;;;;;;;2.60;2.17;;;17.40;99.90;;;;;;4972559;28;20034;-73
2022/08/01 02:50:49;;;;;;;13.52;3.03;;;17.30;99.90;;;;;;4973134;28;20128;-72
2022/08/01 02:53:18;;;;;;;3.38;2.38;;;17.30;99.90;;;;;;4972369;28;20032;-71
2022/08/01 02:55:47;;;;;;;3.55;1.88;;;17.40;99.90;;;;;;4973026;28;20023;-72
2022/08/01 02:58:14;;;;;;;4.75;2.60;;;17.30;99.90;;;;;;4972988;28;20027;-72
2022/08/01 03:00:46;;;;;;;5.47;2.78;;;17.30;99.90;;;;;;4971621;28;20015;-72
2022/08/01 03:03:15;;;;;;;3.38;2.17;;;17.40;99.90;;;;;;4972913;28;20439;-71
2022/08/01 03:05:42;;;;;;;4.38;2.15;;;17.30;99.90;;;;;;4972627;28;20744;-72
2022/08/01 03:08:09;;;;;;;4.07;2.80;;;17.30;99.90;;;;;;4972504;28;20023;-72
2022/08/01 03:10:39;;;;;;;4.63;2.65;;;17.30;99.90;;;;;;4972619;28;20024;-72
2022/08/01 03:13:07;;;;;;;4.80;2.58;;;17.30;99.90;;;;;;4971216;28;20042;-72
2022/08/01 03:15:38;;;;;;;4.60;2.97;;;17.30;99.90;;;;;;4972542;28;20061;-73
2022/08/01 03:18:07;;;;;;;4.15;2.97;;;17.30;99.90;;;;;;4971873;28;20027;-75
2022/08/01 03:20:33;;;;;;;19.48;3.28;;;17.20;99.90;;;;;;4954237;28;20055;-74
2022/08/01 03:23:05;;;;;;;3.63;1.92;;;17.10;99.90;;;;;;4972209;28;20027;-72
2022/08/01 03:25:34;;;;;;;3.00;2.05;;;17.20;99.90;;;;;;4972543;28;20054;-75
2022/08/01 03:28:03;;;;;;;8.90;3.47;;;17.20;99.90;;;;;;4955763;28;20038;-73
2022/08/01 03:30:30;;;;;;;4.63;2.40;;;17.20;99.90;;;;;;4972400;28;20111;-75
2022/08/01 03:32:56;;;;;;;5.55;1.60;;;17.20;99.90;;;;;;4971529;28;20032;-74
2022/08/01 03:35:25;;;;;;;3.70;2.10;;;17.20;99.90;;;;;;4971473;28;20447;-70
2022/08/01 03:37:54;;;;;;;4.93;2.00;;;17.20;99.90;;;;;;4972271;28;20047;-72
2022/08/01 03:40:27;;;;;;;3.25;2.30;;;17.20;99.90;;;;;;4972554;28;20082;-73
2022/08/01 03:42:59;;;;;;;2.78;1.85;;;17.20;99.90;;;;;;4973095;28;20038;-73
2022/08/01 03:45:37;;;;;;;4.53;2.40;;;17.10;99.90;;;;;;4972742;28;20035;-72
2022/08/01 03:48:08;;;;;;;5.50;2.58;;;17.20;99.90;;;;;;4971967;28;20444;-74
2022/08/01 03:50:35;;;;;;;8.52;3.05;;;17.20;99.90;;;;;;4971890;28;20118;-73
2022/08/01 03:53:03;;;;;;;6.70;2.38;;;17.20;99.90;;;;;;4971672;28;20079;-73
2022/08/01 03:55:31;;;;;;;2.17;1.63;;;17.20;99.90;;;;;;4972087;28;20383;-73
2022/08/01 03:57:58;;;;;;;2.30;1.73;;;17.10;99.90;;;;;;4972325;28;20043;-72
2022/08/01 04:00:24;;;;;;;2.22;1.50;;;17.20;99.90;;;;;;4953810;28;20023;-74
2022/08/01 04:02:50;;;;;;;2.65;1.85;;;17.20;99.90;;;;;;4972361;28;20066;-74
2022/08/01 04:05:17;;;;;;;4.03;1.83;;;17.20;99.90;;;;;;4971629;28;20114;-73
2022/08/01 04:07:47;;;;;;;6.10;2.25;;;17.20;99.90;;;;;;4971881;28;20023;-73
2022/08/01 04:10:13;;;;;;;4.10;2.42;;;17.20;99.90;;;;;;4972810;28;20043;-75
2022/08/01 04:12:39;;;;;;;4.60;2.08;;;17.20;99.90;;;;;;4970874;28;20083;-72
2022/08/01 04:15:06;;;;;;;4.88;1.65;;;17.20;99.90;;;;;;4971520;28;20127;-73
2022/08/01 04:17:32;;;;;;;3.80;1.73;;;17.20;99.90;;;;;;4971894;28;20077;-74
2022/08/01 04:19:57;;;;;;;2.17;1.48;;;17.20;99.90;;;;;;4973669;28;20031;-72
2022/08/01 04:22:23;;;;;;;2.20;1.10;;;17.20;99.90;;;;;;4972234;28;20032;-71
2022/08/01 04:24:53;;;;;;;2.20;0.80;;;17.20;99.90;;;;;;4973434;28;21101;-71
2022/08/01 04:27:23;;;;;;;1.75;1.17;;;17.20;99.90;;;;;;4975544;28;20034;-71
2022/08/01 04:29:54;;;;;;;2.60;1.30;;;17.20;99.90;;;;;;4957223;28;20028;-72
2022/08/01 04:32:21;;;;;;;2.10;1.35;;;17.20;99.90;;;;;;4976093;28;20016;-71
2022/08/01 04:34:49;;;;;;;5.15;1.92;;;17.10;99.90;;;;;;4974930;28;20054;-70
2022/08/01 04:37:16;;;;;;;5.70;1.80;;;17.20;99.90;;;;;;4975165;28;20070;-70
2022/08/01 04:39:44;;;;;;;3.30;1.33;;;17.10;99.90;;;;;;4975747;28;20091;-70
2022/08/01 04:42:10;;;;;;;1.58;0.80;;;17.20;99.90;;;;;;4975289;28;20023;-71
2022/08/01 04:44:45;;;;;;;1.88;1.02;;;17.10;99.90;;;;;;4975357;28;20595;-71
2022/08/01 04:47:13;;;;;;;1.92;0.70;;;17.10;99.90;;;;;;4974918;28;20037;-71
2022/08/01 04:49:39;;;;;;;1.27;0.82;;;17.10;99.90;;;;;;4974844;28;20023;-73
2022/08/01 04:52:06;;;;;;;2.17;0.73;;;17.00;99.90;;;;;;4975318;28;20046;-71
2022/08/01 04:54:33;;;;;;;1.52;0.98;;;17.00;99.90;;;;;;4975676;28;20106;-72
2022/08/01 04:57:00;;;;;;;2.30;1.25;;;17.10;99.90;;;;;;4974698;28;20031;-72
2022/08/01 04:59:41;;;;;;;1.17;0.88;;;17.10;99.90;;;;;;4974942;28;20042;-70
2022/08/01 05:02:15;;;;;;;1.95;0.88;;;17.10;99.90;;;;;;4975196;28;20062;-72
2022/08/01 05:04:42;;;;;;;2.70;0.70;;;17.10;99.90;;;;;;4974453;28;20035;-69
2022/08/01 05:07:08;;;;;;;4.88;0.75;;;16.90;99.90;;;;;;4974487;28;20091;-73
2022/08/01 05:09:35;;;;;;;0.43;0.40;;;17.00;99.90;;;;;;4974511;28;20412;-72
2022/08/01 05:12:02;;;;;;;5.85;1.08;;;17.10;99.90;;;;;;4975446;28;20026;-72
2022/08/01 05:14:31;;;;;;;1.33;0.77;;;17.00;99.90;;;;;;4974535;28;20413;-71
2022/08/01 05:17:06;;;;;;;4.25;1.02;;;17.00;99.90;;;;;;4974654;28;20400;-73
2022/08/01 05:19:33;;;;;;;2.15;1.02;;;17.00;99.90;;;;;;4973974;28;20014;-72
2022/08/01 05:22:01;;;;;;;2.70;1.17;;;17.10;99.90;;;;;;4975763;28;20038;-72
2022/08/01 05:24:31;;;;;;;6.85;1.65;;;17.00;99.90;;;;;;4975189;28;20057;-73
2022/08/01 05:26:57;;;;;;;3.58;1.20;;;16.90;99.90;;;;;;4975482;28;20030;-73
2022/08/01 05:29:23;;;;;;;1.50;1.17;;;16.90;99.90;;;;;;4974088;28;20034;-70
2022/08/01 05:31:48;;;;;;;6.88;1.77;;;16.90;99.90;;;;;;4975066;28;20053;-71
2022/08/01 05:34:14;;;;;;;2.38;1.40;;;16.90;99.90;;;;;;4974669;28;20074;-74
2022/08/01 05:36:40;;;;;;;6.05;2.15;;;16.90;99.90;;;;;;4974686;28;20042;-74
2022/08/01 05:39:05;;;;;;;7.68;1.80;;;17.00;99.90;;;;;;4974664;28;20027;-72
2022/08/01 05:41:31;;;;;;;2.95;1.33;;;16.90;99.90;;;;;;4974962;28;20419;-74
2022/08/01 05:43:57;;;;;;;4.93;2.38;;;17.00;99.90;;;;;;4973579;28;20463;-71
2022/08/01 05:46:22;;;;;;;3.72;1.77;;;17.00;99.90;;;;;;4974964;28;20050;-72
2022/08/01 05:48:48;;;;;;;6.22;2.00;;;17.00;99.90;;;;;;4973536;28;20036;-73
2022/08/01 05:51:13;;;;;;;3.85;2.25;;;17.00;99.90;;;;;;4974419;28;20112;-73
2022/08/01 05:53:39;;;;;;;12.23;2.67;;;17.00;99.90;;;;;;4974392;28;20113;-75
2022/08/01 05:56:05;;;;;;;4.35;2.05;;;16.90;99.90;;;;;;4956944;28;20508;-72
2022/08/01 05:58:31;;;;;;;14.68;2.75;;;16.90;99.90;;;;;;4972459;28;20081;-71
2022/08/01 06:00:57;;;;;;;11.32;2.33;;;16.90;99.90;;;;;;4974125;28;20062;-72
2022/08/01 06:03:23;;;;;;;5.88;2.10;;;16.90;99.90;;;;;;4973864;28;20071;-72
2022/08/01 06:05:50;;;;;;;7.18;2.28;;;16.70;99.90;;;;;;4971877;28;20052;-72
2022/08/01 06:08:16;;;;;;;3.35;1.63;;;16.80;99.90;;;;;;4973560;28;20054;-71
2022/08/01 06:10:41;;;;;;;5.80;2.08;;;16.70;99.90;;;;;;4972325;28;20034;-73
2022/08/01 06:13:07;;;;;;;12.00;2.90;;;16.60;99.90;;;;;;4973491;28;20034;-72
2022/08/01 06:15:33;;;;;;;3.80;1.48;;;16.60;99.90;;;;;;4973562;28;20044;-70
2022/08/01 06:17:59;;;;;;;4.93;1.63;;;16.50;99.90;;;;;;4972926;28;20031;-73
2022/08/01 06:20:25;;;;;;;9.40;2.28;;;16.50;99.90;;;;;;4973330;28;20033;-73
2022/08/01 06:22:51;;;;;;;3.40;2.10;;;16.50;99.90;;;;;;4975118;28;20039;-73
2022/08/01 06:25:17;;;;;;;4.40;2.05;;;16.50;99.90;;;;;;4973184;28;20035;-73
2022/08/01 06:27:43;;;;;;;9.38;2.58;;;16.50;99.90;;;;;;4972228;28;20019;-72
2022/08/01 06:30:10;;;;;;;4.13;1.40;;;16.40;99.90;;;;;;4972706;28;20028;-72
2022/08/01 06:32:36;;;;;;;3.92;2.30;;;16.50;99.90;;;;;;4971517;28;20026;-74
2022/08/01 06:35:01;;;;;;;4.22;1.95;;;16.50;99.90;;;;;;4953913;28;20047;-73
2022/08/01 06:37:31;;;;;;;6.25;1.83;;;16.50;99.90;;;;;;4974209;28;20039;-72
2022/08/01 06:40:10;;;;;;;16.20;2.45;;;16.50;99.90;;;;;;4972438;28;20391;-72
2022/08/01 06:42:36;;;;;;;7.05;1.77;;;16.40;99.90;;;;;;4973088;28;20028;-71
2022/08/01 06:45:07;;;;;;;4.65;2.08;;;16.50;99.90;;;;;;4972864;28;20037;-72
2022/08/01 06:47:32;;;;;;;9.98;2.50;;;16.50;99.90;;;;;;4972426;28;20122;-72
2022/08/01 06:49:58;;;;;;;8.25;2.08;;;16.50;99.90;;;;;;4974501;28;20074;-73
2022/08/01 06:52:24;;;;;;;5.07;2.25;;;16.50;99.90;;;;;;4974149;28;20023;-74
2022/08/01 06:54:50;;;;;;;9.18;2.10;;;16.60;99.90;;;;;;4974676;28;20111;-73
2022/08/01 06:57:15;;;;;;;2.80;1.92;;;16.60;99.90;;;;;;4972682;28;20027;-74
2022/08/01 06:59:41;;;;;;;7.60;2.33;;;16.60;99.90;;;;;;4971796;28;20499;-69
2022/08/01 07:02:07;;;;;;;3.67;2.15;;;16.60;99.90;;;;;;4972623;28;20391;-73
2022/08/01 07:04:33;;;;;;;4.53;1.52;;;16.70;99.90;;;;;;4972934;28;20039;-74
2022/08/01 07:06:59;;;;;;;4.93;1.95;;;16.60;99.90;;;;;;4973157;28;20046;-74
2022/08/01 07:09:25;;;;;;;10.52;2.25;;;16.60;99.90;;;;;;4972248;28;20093;-73
2022/08/01 07:11:52;;;;;;;12.35;2.92;;;16.70;99.90;;;;;;4972423;28;20049;-74
2022/08/01 07:14:18;;;;;;;5.57;2.58;;;16.70;99.90;;;;;;4972155;28;20027;-73
2022/08/01 07:16:44;;;;;;;11.65;2.55;;;16.80;99.90;;;;;;4972597;28;20106;-73
2022/08/01 07:19:10;;;;;;;4.88;2.65;;;16.80;99.90;;;;;;4972016;28;20118;-74
2022/08/01 07:21:36;;;;;;;6.38;2.55;;;16.90;99.90;;;;;;4972578;28;20066;-75
2022/08/01 07:24:01;;;;;;;12.50;3.03;;;16.90;99.90;;;;;;4971806;28;20118;-75
2022/08/01 07:26:27;;;;;;;21.15;1.92;;;16.90;99.90;;;;;;4954983;28;20027;-75
2022/08/01 07:28:53;;;;;;;6.28;2.20;;;17.00;99.90;;;;;;4971471;28;20066;-72
2022/08/01 07:31:19;;;;;;;5.05;1.75;;;16.90;99.90;;;;;;4971963;28;20042;-72
2022/08/01 07:33:45;;;;;;;5.57;2.38;;;16.70;99.90;;;;;;4955612;28;20031;-73
2022/08/01 07:36:11;;;;;;;8.20;2.45;;;16.70;99.90;;;;;;4972017;28;20818;-73
2022/08/01 07:38:36;;;;;;;4.82;2.03;;;16.70;99.90;;;;;;4973662;28;20035;-72
2022/08/01 07:41:04;;;;;;;12.60;2.63;;;16.80;99.90;;;;;;4972151;28;20023;-76
2022/08/01 07:43:30;;;;;;;11.95;2.70;;;16.90;99.90;;;;;;4955979;28;20031;-73
2022/08/01 07:45:55;;;;;;;3.20;1.65;;;17.00;99.90;;;;;;4954481;28;20034;-72
2022/08/01 07:48:23;;;;;;;11.00;1.50;;;17.10;99.90;;;;;;4972253;28;20055;-71
2022/08/01 07:50:50;;;;;;;13.32;3.00;;;17.10;99.90;;;;;;4972300;28;20034;-75
2022/08/01 07:53:36;;;;;;;7.32;1.73;;;17.10;99.90;;;;;;4973490;28;20037;-75
2022/08/01 07:56:04;;;;;;;11.88;2.22;;;17.10;99.90;;;;;;4956959;28;20134;-73
2022/08/01 07:58:30;;;;;;;12.85;2.08;;;17.00;99.90;;;;;;4957045;28;20503;-69
2022/08/01 08:00:55;;;;;;;8.15;1.45;;;16.90;99.90;;;;;;4976516;28;20030;-72
2022/08/01 08:03:21;;;;;;;1.25;1.15;;;17.10;99.90;;;;;;4974848;28;20380;-70
2022/08/01 08:05:47;;;;;;;6.55;2.05;;;16.90;99.90;;;;;;4960450;28;20054;-71
2022/08/01 08:08:13;;;;;;;5.72;1.20;;;16.90;99.90;;;;;;4959532;28;20094;-73
2022/08/01 08:10:40;;;;;;;20.38;2.58;;;16.90;99.90;;;;;;4975483;28;20181;-72
2022/08/01 08:13:05;;;;;;;3.90;1.70;;;16.90;99.90;;;;;;4974933;28;20046;-75
2022/08/01 08:15:31;;;;;;;3.67;1.42;;;16.90;99.90;;;;;;4975031;28;20031;-74
2022/08/01 08:17:56;;;;;;;9.80;1.45;;;17.00;99.90;;;;;;4976835;28;20109;-70
2022/08/01 08:20:24;;;;;;;2.17;1.42;;;17.10;99.90;;;;;;4975956;28;20035;-70
2022/08/01 08:22:51;;;;;;;3.30;1.63;;;17.20;99.90;;;;;;4975777;28;20321;-72
2022/08/01 08:25:18;;;;;;;4.55;1.85;;;17.30;99.90;;;;;;4976864;28;20066;-72
2022/08/01 08:27:45;;;;;;;11.65;1.48;;;17.50;99.90;;;;;;4974908;28;20031;-71
2022/08/01 08:30:11;;;;;;;4.78;1.77;;;17.60;99.90;;;;;;4973884;28;20427;-71
2022/08/01 08:32:37;;;;;;;2.60;1.13;;;17.70;99.90;;;;;;4973393;28;20031;-74
2022/08/01 08:35:03;;;;;;;21.98;1.63;;;17.60;99.90;;;;;;4971951;28;20076;-74
2022/08/01 08:37:29;;;;;;;3.15;1.30;;;17.40;99.90;;;;;;4973722;28;20050;-75
2022/08/01 08:39:54;;;;;;;12.82;1.42;;;17.40;99.90;;;;;;4955176;28;20122;-73
2022/08/01 08:42:20;;;;;;;2.53;1.30;;;17.50;99.90;;;;;;4973524;28;20030;-74
2022/08/01 08:44:46;;;;;;;4.95;1.88;;;17.60;99.90;;;;;;4972726;28;20106;-75
2022/08/01 08:47:13;;;;;;;11.20;2.53;;;17.60;99.90;;;;;;4975871;28;20035;-75
2022/08/01 08:49:39;;;;;;;4.72;1.27;;;17.80;99.90;;;;;;4973918;28;20023;-75
2022/08/01 08:52:05;;;;;;;6.55;1.30;;;17.90;99.90;;;;;;4974607;28;20098;-73
2022/08/01 08:54:32;;;;;;;3.83;1.10;;;17.90;99.90;;;;;;4975255;28;20028;-77
2022/08/01 08:57:00;;;;;;;7.30;1.05;;;18.00;99.90;;;;;;4975004;28;20039;-74
2022/08/01 08:59:27;;;;;;;2.75;1.45;;;18.00;99.90;;;;;;4973827;28;20054;-72
2022/08/01 09:01:53;;;;;;;1.35;1.10;;;18.00;99.90;;;;;;4973266;28;20038;-74
2022/08/01 09:04:22;;;;;;;8.35;2.42;;;17.90;99.90;;;;;;4976720;28;20038;-76
2022/08/01 09:06:48;;;;;;;3.17;0.90;;;18.00;99.90;;;;;;4957406;28;20403;-74
2022/08/01 09:09:14;;;;;;;2.53;0.95;;;18.10;99.90;;;;;;4957649;28;20031;-75
2022/08/01 09:11:39;;;;;;;1.60;0.88;;;18.20;99.90;;;;;;4955645;28;20772;-73
2022/08/01 09:14:32;;;;;;;4.35;1.23;;;18.30;99.90;;;;;;4974814;28;20059;-75
2022/08/01 09:17:10;;;;;;;3.40;1.08;;;18.30;99.90;;;;;;4974407;28;20070;-74
2022/08/01 09:19:36;;;;;;;6.28;1.60;;;18.50;99.90;;;;;;4977119;28;20048;-74
2022/08/01 09:22:03;;;;;;;9.38;1.88;;;18.60;99.90;;;;;;4974598;28;20058;-75
2022/08/01 09:24:30;;;;;;;15.45;1.00;;;18.70;99.90;;;;;;4975051;28;20047;-74
2022/08/01 09:26:57;;;;;;;4.32;1.17;;;18.90;99.90;;;;;;4974333;28;20080;-73
2022/08/01 09:29:28;;;;;;;1.85;1.45;;;18.90;99.90;;;;;;4974827;28;20046;-74
2022/08/01 09:31:56;;;;;;;3.40;1.50;;;19.00;99.90;;;;;;4975397;28;20033;-71
2022/08/01 09:34:30;;;;;;;1.20;1.10;;;19.10;99.90;;;;;;4973812;28;20042;-74
2022/08/01 09:36:58;;;;;;;1.48;1.00;;;19.10;99.90;;;;;;4975185;28;20022;-73
2022/08/01 09:39:37;;;;;;;4.45;1.30;;;19.10;99.90;;;;;;4976186;28;20031;-75
2022/08/01 09:42:22;;;;;;;8.35;1.33;;;19.10;99.90;;;;;;4957509;28;20031;-74
2022/08/01 09:44:48;;;;;;;4.72;1.52;;;19.20;99.90;;;;;;4957938;28;20038;-73
2022/08/01 09:47:16;;;;;;;4.22;1.13;;;19.40;99.90;;;;;;4975985;28;20031;-73
2022/08/01 09:49:43;;;;;;;6.93;0.88;;;19.40;99.90;;;;;;4974741;28;20018;-72
2022/08/01 09:52:20;;;;;;;7.03;1.10;;;19.60;99.90;;;;;;4976555;28;20023;-74
2022/08/01 09:55:07;;;;;;;3.28;1.15;;;19.70;99.90;;;;;;4974565;28;20034;-73
2022/08/01 09:57:33;;;;;;;3.40;1.33;;;19.80;99.90;;;;;;4970275;28;20030;-74
2022/08/01 10:00:00;;;;;;;6.38;1.23;;;20.00;99.90;;;;;;4972312;28;20054;-72
2022/08/01 10:02:40;;;;;;;5.45;1.13;;;20.10;99.90;;;;;;4972527;28;20027;-73
2022/08/01 10:05:09;;;;;;;3.20;1.30;;;20.10;99.90;;;;;;4974332;28;20041;-74
2022/08/01 10:07:36;;;;;;;13.95;1.55;;;20.10;99.90;;;;;;4974259;28;20077;-74
2022/08/01 10:10:14;;;;;;;6.18;1.30;;;20.20;99.90;;;;;;4975139;28;20031;-72
2022/08/01 10:12:41;;;;;;;1.55;0.98;;;20.10;99.90;;;;;;4974448;28;20117;-72
2022/08/01 10:15:08;;;;;;;2.70;1.02;;;20.00;99.90;;;;;;4956545;28;20031;-71
2022/08/01 10:17:36;;;;;;;8.45;1.42;;;20.00;99.90;;;;;;4974380;28;20468;-72
2022/08/01 10:20:03;;;;;;;2.50;0.77;;;20.00;99.90;;;;;;4974284;28;20031;-73
2022/08/01 10:22:31;;;;;;;6.40;0.57;;;20.00;99.90;;;;;;4956503;28;20035;-72
2022/08/01 10:25:00;;;;;;;6.22;1.95;;;20.10;99.90;;;;;;4974417;28;20032;-73
2022/08/01 10:27:28;;;;;;;4.88;1.08;;;20.10;99.90;;;;;;4976417;28;20053;-72
2022/08/01 10:30:07;;;;;;;2.10;1.23;;;20.20;99.90;;;;;;4973935;28;20031;-75
2022/08/01 10:32:35;;;;;;;0.30;0.30;;;20.20;99.90;;;;;;4956793;28;20037;-71
2022/08/01 10:35:01;;;;;;;5.18;1.42;;;20.20;99.90;;;;;;4973044;28;20123;-74
2022/08/01 10:37:27;;;;;;;2.22;0.80;;;20.30;99.90;;;;;;4956078;28;20027;-71
2022/08/01 10:39:53;;;;;;;3.15;1.35;;;20.40;99.90;;;;;;4973879;28;20041;-72
2022/08/01 10:42:19;;;;;;;1.67;0.80;;;20.60;99.90;;;;;;4956892;28;20031;-73
2022/08/01 10:44:47;;;;;;;5.25;1.17;;;20.70;99.90;;;;;;4973525;28;20036;-70
2022/08/01 10:47:15;;;;;;;0.55;0.43;;;20.80;99.90;;;;;;4972525;28;20103;-71
2022/08/01 10:49:49;;;;;;;1.92;1.13;;;20.80;99.90;;;;;;4972934;28;20027;-72
2022/08/01 10:52:18;;;;;;;5.65;1.40;;;21.00;99.90;;;;;;4973022;28;20415;-72
2022/08/01 10:54:44;;;;;;;0.93;0.50;;;21.00;99.90;;;;;;4973087;28;20111;-74
2022/08/01 10:57:11;;;;;;;2.15;0.90;;;21.00;99.90;;;;;;4955663;28;20023;-72
2022/08/01 10:59:48;;;;;;;2.08;0.85;;;21.10;99.90;;;;;;4972640;28;20031;-73
2022/08/01 11:02:27;;;;;;;3.38;1.00;;;21.20;99.90;;;;;;4955125;28;20266;-73
2022/08/01 11:05:11;;;;;;;11.73;1.40;;;21.50;99.90;;;;;;4955401;28;20063;-74
2022/08/01 11:07:52;;;;;;;1.65;0.75;;;21.50;99.90;;;;;;4973229;28;20039;-73
2022/08/01 11:10:37;;;;;;;2.83;0.80;;;21.50;99.90;;;;;;4973273;28;20035;-73
2022/08/01 11:13:07;;;;;;;2.40;0.50;;;21.40;99.90;;;;;;4955655;28;20034;-72
2022/08/01 11:15:33;;;;;;;1.65;0.73;;;21.50;99.90;;;;;;4973142;28;20042;-73
2022/08/01 11:18:01;;;;;;;3.90;1.00;;;21.50;99.90;;;;;;4955465;28;20055;-73
2022/08/01 11:20:35;;;;;;;8.27;1.38;;;21.50;99.90;;;;;;4955957;28;20018;-71
2022/08/01 11:23:01;;;;;;;4.28;1.60;;;21.60;99.90;;;;;;4973918;28;20026;-71
2022/08/01 11:25:48;;;;;;;9.50;0.63;;;21.80;99.90;;;;;;4972775;28;20049;-74
2022/08/01 11:28:14;;;;;;;4.78;0.98;;;22.00;99.90;;;;;;4953529;28;20023;-70
2022/08/01 11:30:40;;;;;;;2.13;0.80;;;22.20;99.90;;;;;;4972838;28;20122;-72
2022/08/01 11:33:06;;;;;;;1.73;0.60;;;22.20;99.90;;;;;;4973350;28;20042;-72
2022/08/01 11:35:32;;;;;;;0.95;0.75;;;22.20;99.90;;;;;;4975287;28;20117;-73
2022/08/01 11:38:29;;;;;;;8.75;1.35;;;22.30;99.90;;;;;;4973197;28;20072;-71
2022/08/01 11:41:10;;;;;;;1.00;0.57;;;22.20;99.90;;;;;;4976074;28;20034;-74
2022/08/01 11:43:57;;;;;;;2.95;0.77;;;22.20;99.90;;;;;;4960244;28;20029;-75
2022/08/01 11:47:07;;;;;;;1.92;0.98;;;22.30;99.90;;;;;;4975999;28;20089;-74
2022/08/01 11:49:47;;;;;;;5.93;1.75;;;22.40;99.90;;;;;;4976676;28;20090;-77
2022/08/01 11:52:18;;;;;;;4.03;0.77;;;22.40;99.90;;;;;;4976433;28;20023;-72
2022/08/01 11:54:46;;;;;;;5.32;1.50;;;22.30;99.90;;;;;;4975097;28;20498;-70
2022/08/01 11:57:17;;;;;;;1.90;0.65;;;22.40;99.90;;;;;;4975399;28;20027;-71
2022/08/01 11:59:47;;;;;;;2.90;1.13;;;22.50;99.90;;;;;;4975469;28;20030;-72
2022/08/01 12:02:21;;;;;;;1.60;0.50;;;22.70;99.90;;;;;;4975880;28;20034;-72
2022/08/01 12:04:48;;;;;;;2.08;0.25;;;22.50;99.90;;;;;;4959376;28;20054;-71
2022/08/01 12:07:17;;;;;;;4.68;1.17;;;22.40;99.90;;;;;;4976899;28;20070;-73
2022/08/01 12:09:44;;;;;;;3.15;0.95;;;22.60;99.90;;;;;;4975569;28;20045;-73
2022/08/01 12:12:10;;;;;;;1.58;0.93;;;22.60;99.90;;;;;;4976832;28;20043;-74
2022/08/01 12:14:36;;;;;;;5.90;1.05;;;22.30;99.90;;;;;;4974782;28;20027;-75
2022/08/01 12:17:01;;;;;;;3.20;1.10;;;21.90;99.90;;;;;;4976930;28;20077;-75
2022/08/01 12:19:27;;;;;;;8.27;0.73;;;21.80;99.90;;;;;;4975293;28;20556;-74
2022/08/01 12:22:07;;;;;;;15.80;1.27;;;22.10;99.90;;;;;;4975942;28;20027;-72
2022/08/01 12:24:34;;;;;;;7.82;0.90;;;21.90;99.90;;;;;;4975748;28;20051;-74
2022/08/01 12:27:01;;;;;;;5.30;0.63;;;22.00;99.90;;;;;;4976049;28;20105;-72
2022/08/01 12:29:33;;;;;;;11.13;1.08;;;22.00;99.90;;;;;;4976080;28;20045;-75
2022/08/01 12:31:59;;;;;;;9.82;1.35;;;22.20;99.90;;;;;;4956458;28;20039;-74
2022/08/01 12:34:27;;;;;;;1.30;0.63;;;22.40;99.90;;;;;;4974981;28;20043;-72
2022/08/01 12:36:58;;;;;;;5.85;1.08;;;22.30;99.90;;;;;;4958050;28;20039;-75
2022/08/01 12:39:32;;;;;;;0.80;0.68;;;22.10;99.90;;;;;;4975344;28;20051;-73
2022/08/01 12:41:58;;;;;;;1.70;0.77;;;22.20;99.90;;;;;;4975300;28;21303;-73
2022/08/01 12:44:26;;;;;;;4.60;1.25;;;22.30;99.90;;;;;;4975122;28;20039;-74
2022/08/01 12:46:53;;;;;;;0.45;0.30;;;22.50;99.90;;;;;;4977086;28;20027;-74
2022/08/01 12:49:19;;;;;;;5.68;0.90;;;22.60;99.90;;;;;;4975802;28;20936;-72
2022/08/01 12:51:45;;;;;;;4.80;0.82;;;22.80;99.90;;;;;;4959180;28;20042;-74
2022/08/01 12:54:10;;;;;;;2.83;1.23;;;22.50;99.90;;;;;;4974155;28;20628;-73